LiveATC.Net - Listen to live air traffic control over the Internet!


ICAO: KSWO  IATA: SWO   Airport: Stillwater Regional Airport
City: Stillwater   State/Province: Oklahoma
Country: United States   Continent: North America
KSWO METAR Weather: KSWO 250253Z AUTO 18013KT 10SM CLR 30/22 A2979 RMK AO2 SLP071 T03000217 51005
KSWO Flight Activity (FlightAware)
KSWO Airport Info   (iFlightPlanner)
KSWO VFR Sectional Chart   (iFlightPlanner) 
KSWO IFR Low Chart   (iFlightPlanner) 

KSWO Tower
Feed Status: UP   Listeners: 0
Listen in your browser - HTML5 player (in browser, HTML5)
Click here to listen with your own player (launches your MP3 player)
Archive Access: KSWO Tower
FacilityFrequency
Stillwater Tower125.350

NOTICE

Unauthorized use prohibited. See LiveATC.net Terms of Service


Airport/ARTCC Code
Frequency Search
(e.g., 124.400, 128.75)
Site-wide search
 


Browse Feeds
Top 50 Feeds
HF Oceanic Feeds
Coverage Map
Bad Weather Areas

LiveATC FAQ
Offer LiveATC feed
Contact LiveATC.net
Press Inquiries

LiveATC on iPhone
LiveATC on Android

Windows Phone
Windows 8/10

LiveATC Mobile
(Mobile browser)

ATC Audio Archives
Interesting Recordings

LiveATC Forums


Home Page
About LiveATC.net
Make a Donation
Terms of Use
Privacy Policy

Canadian Air Freqs

AIRMETs/SIGMETs

FAA Airport Status
NAS Status
Arrival Demand


Server Software By:
Icecast.org
Liquidsoap